Time;durP1;ratioP1;P1;durP2;ratioP2;P2;SDS_P1;SDS_P2;PMS_P1;PMS_P2;Temp;Humidity;BMP_temperature;BMP_pressure;BME280_temperature;BME280_humidity;BME280_pressure;Samples;Min_cycle;Max_cycle;Signal;HPM_P1;HPM_P2
2021/12/29 00:01:07;;;;;;;0.50;0.50;;;6.80;99.90;;;;;;5113083;28;20123;-80
2021/12/29 00:03:32;;;;;;;2.08;1.67;;;6.80;99.90;;;;;;5114041;28;20036;-80
2021/12/29 00:05:58;;;;;;;0.50;0.50;;;6.80;99.90;;;;;;5114035;28;20043;-80
2021/12/29 00:08:24;;;;;;;0.73;0.60;;;6.80;99.90;;;;;;5114050;28;20485;-80
2021/12/29 00:10:56;;;;;;;0.50;0.50;;;6.80;99.90;;;;;;5114074;28;20040;-80
2021/12/29 00:13:26;;;;;;;0.50;0.50;;;6.80;99.90;;;;;;5114002;28;20062;-80
2021/12/29 00:15:57;;;;;;;0.80;0.80;;;6.80;99.90;;;;;;5114001;28;20044;-80
2021/12/29 00:18:31;;;;;;;0.70;0.70;;;6.80;99.90;;;;;;5113988;28;20046;-80
2021/12/29 00:20:58;;;;;;;1.17;1.15;;;6.80;99.90;;;;;;5114728;28;20044;-81
2021/12/29 00:23:24;;;;;;;1.40;1.30;;;6.70;99.90;;;;;;5113593;28;20496;-79
2021/12/29 00:25:49;;;;;;;0.50;0.50;;;6.70;99.90;;;;;;5113928;28;20058;-80
2021/12/29 00:28:15;;;;;;;0.50;0.50;;;6.70;99.90;;;;;;5113955;28;20557;-80
2021/12/29 00:30:42;;;;;;;0.65;0.65;;;6.80;99.90;;;;;;5114237;28;20047;-80
2021/12/29 00:33:08;;;;;;;0.60;0.60;;;6.70;99.90;;;;;;5112635;28;20047;-80
2021/12/29 00:35:35;;;;;;;0.70;0.70;;;6.70;99.90;;;;;;5113517;28;20472;-80
2021/12/29 00:38:02;;;;;;;;;;;6.70;99.90;;;;;;5114171;28;20043;-80
2021/12/29 00:40:29;;;;;;;0.50;0.50;;;8.10;99.90;;;;;;5113785;28;20291;-79
2021/12/29 00:42:54;;;;;;;0.60;0.60;;;6.70;99.90;;;;;;5113745;28;20048;-80
2021/12/29 00:45:20;;;;;;;0.50;0.50;;;6.60;99.90;;;;;;5117586;28;20488;-80
2021/12/29 00:47:46;;;;;;;0.50;0.50;;;6.60;99.90;;;;;;5118128;28;20050;-80
2021/12/29 00:50:15;;;;;;;0.50;0.50;;;6.60;99.90;;;;;;5118048;28;20114;-80
2021/12/29 00:52:45;;;;;;;0.60;0.60;;;6.20;99.90;;;;;;5116890;28;20062;-79
2021/12/29 00:55:12;;;;;;;0.50;0.50;;;6.60;99.90;;;;;;5119821;28;20130;-80
2021/12/29 00:57:38;;;;;;;0.50;0.50;;;6.70;99.90;;;;;;5116373;28;20087;-79
2021/12/29 01:00:09;;;;;;;0.68;0.68;;;6.60;99.90;;;;;;5117323;27;20047;-80
2021/12/29 01:02:35;;;;;;;0.50;0.50;;;6.60;99.90;;;;;;5117627;28;20036;-80
2021/12/29 01:05:02;;;;;;;0.70;0.70;;;6.60;99.90;;;;;;5117559;28;20042;-80
2021/12/29 01:07:28;;;;;;;0.50;0.50;;;6.60;99.90;;;;;;5116272;28;20048;-80
2021/12/29 01:09:53;;;;;;;0.65;0.50;;;6.60;99.90;;;;;;5117094;28;20543;-80
2021/12/29 01:12:19;;;;;;;0.50;0.50;;;6.60;99.90;;;;;;5117192;28;20391;-79
2021/12/29 01:14:53;;;;;;;0.50;0.50;;;6.60;99.90;;;;;;5116986;28;20046;-80
2021/12/29 01:17:19;;;;;;;0.50;0.50;;;6.60;99.90;;;;;;5116993;28;20043;-79
2021/12/29 01:19:45;;;;;;;0.70;0.70;;;6.60;99.90;;;;;;5115741;28;20456;-79
2021/12/29 01:22:10;;;;;;;0.50;0.50;;;6.60;99.90;;;;;;5117057;28;20126;-80
2021/12/29 01:24:37;;;;;;;0.50;0.50;;;6.60;99.90;;;;;;5117016;28;20126;-80
2021/12/29 01:27:02;;;;;;;0.50;0.50;;;6.60;99.90;;;;;;5116804;28;20127;-81
2021/12/29 01:29:30;;;;;;;0.50;0.50;;;6.60;99.90;;;;;;5117219;27;20487;-80
2021/12/29 01:31:57;;;;;;;0.50;0.50;;;6.60;99.90;;;;;;5116665;28;20486;-80
2021/12/29 01:34:23;;;;;;;0.50;0.50;;;6.60;99.90;;;;;;5116650;28;20096;-80
2021/12/29 01:36:50;;;;;;;0.50;0.50;;;6.60;99.90;;;;;;5116631;28;20051;-80
2021/12/29 01:39:17;;;;;;;0.40;0.40;;;6.60;99.90;;;;;;5117117;28;20102;-80
2021/12/29 01:41:45;;;;;;;0.50;0.50;;;6.60;99.90;;;;;;5116409;28;20036;-80
2021/12/29 01:44:13;;;;;;;0.40;0.40;;;6.60;99.90;;;;;;5115166;28;20046;-80
2021/12/29 01:46:40;;;;;;;0.80;0.70;;;6.60;99.90;;;;;;5116865;28;20044;-80
2021/12/29 01:49:07;;;;;;;0.57;0.57;;;6.60;99.90;;;;;;5116364;28;20051;-80
2021/12/29 01:51:32;;;;;;;0.50;0.50;;;6.60;99.90;;;;;;5116390;28;20054;-79
2021/12/29 01:56:41;;;;;;;0.57;0.57;;;6.60;99.90;;;;;;5116199;27;20108;-80
2021/12/29 01:59:07;;;;;;;0.43;0.43;;;6.70;99.90;;;;;;5116199;28;20048;-80
2021/12/29 02:01:33;;;;;;;0.50;0.50;;;6.70;99.90;;;;;;5116044;28;20039;-80
2021/12/29 02:04:00;;;;;;;0.65;0.63;;;6.70;99.90;;;;;;5116145;28;20046;-80
2021/12/29 02:06:25;;;;;;;;;;;6.70;99.90;;;;;;5116447;28;20058;-79
2021/12/29 02:08:53;;;;;;;0.73;0.73;;;6.70;99.90;;;;;;5115965;28;19920;-80
2021/12/29 02:11:28;;;;;;;1.85;0.85;;;6.70;99.90;;;;;;5116003;28;20058;-81
2021/12/29 02:13:54;;;;;;;1.60;1.50;;;6.70;99.90;;;;;;5115969;28;20494;-80
2021/12/29 02:16:20;;;;;;;0.50;0.50;;;6.70;99.90;;;;;;5116113;28;20130;-80
2021/12/29 02:18:53;;;;;;;1.08;0.98;;;6.80;99.90;;;;;;5115884;28;20142;-79
2021/12/29 02:21:22;;;;;;;2.17;1.30;;;6.80;99.90;;;;;;5115911;28;20510;-80
2021/12/29 02:24:05;;;;;;;0.57;0.57;;;6.80;99.90;;;;;;5114362;28;20047;-80
2021/12/29 02:26:33;;;;;;;0.60;0.60;;;6.80;99.90;;;;;;5115457;28;20044;-80
2021/12/29 02:29:01;;;;;;;0.50;0.50;;;6.80;99.90;;;;;;5115726;28;20051;-81
2021/12/29 02:31:27;;;;;;;0.50;0.50;;;6.80;99.90;;;;;;5115457;27;20506;-79
2021/12/29 02:33:54;;;;;;;1.30;1.20;;;6.80;99.90;;;;;;5115602;28;20043;-81
2021/12/29 02:36:21;;;;;;;0.88;0.88;;;6.80;99.90;;;;;;5115618;28;20048;-81
2021/12/29 02:38:51;;;;;;;0.70;0.70;;;6.80;99.90;;;;;;5115528;28;20051;-80
2021/12/29 02:41:17;;;;;;;0.88;0.88;;;6.80;99.90;;;;;;5115472;28;20043;-81
2021/12/29 02:43:44;;;;;;;0.50;0.50;;;6.90;99.90;;;;;;5115271;28;20043;-81
2021/12/29 02:46:12;;;;;;;0.90;0.85;;;6.80;99.90;;;;;;5115435;28;20053;-80
2021/12/29 02:48:47;;;;;;;0.70;0.70;;;6.80;99.90;;;;;;5115284;28;20143;-81
2021/12/29 02:51:13;;;;;;;0.57;0.57;;;6.80;99.90;;;;;;5115219;28;20142;-81
2021/12/29 02:53:39;;;;;;;1.15;0.85;;;6.80;99.90;;;;;;5115592;28;20082;-80
2021/12/29 02:56:05;;;;;;;0.50;0.50;;;6.80;99.90;;;;;;5115461;28;20044;-80
2021/12/29 02:58:32;;;;;;;1.35;1.25;;;6.90;99.90;;;;;;5115462;28;20101;-80
2021/12/29 03:00:59;;;;;;;0.50;0.50;;;6.90;99.90;;;;;;5115144;28;20048;-81
2021/12/29 03:03:26;;;;;;;;;;;6.90;99.90;;;;;;5115423;28;20036;-79
2021/12/29 03:05:53;;;;;;;0.93;0.90;;;6.90;99.90;;;;;;5114504;28;19949;-80
2021/12/29 03:08:19;;;;;;;;;;;6.90;99.90;;;;;;5115154;28;20043;-81
2021/12/29 03:10:47;;;;;;;0.50;0.50;;;6.90;99.90;;;;;;5115074;28;19964;-80
2021/12/29 03:13:13;;;;;;;0.43;0.43;;;6.90;99.90;;;;;;5115106;28;20047;-79
2021/12/29 03:15:40;;;;;;;0.77;0.77;;;6.90;99.90;;;;;;5114773;28;20040;-80
2021/12/29 03:18:06;;;;;;;0.50;0.50;;;6.90;99.90;;;;;;5114618;28;20044;-80
2021/12/29 03:20:32;;;;;;;0.85;0.85;;;7.00;99.90;;;;;;5114598;28;20483;-80
2021/12/29 03:22:59;;;;;;;0.57;0.57;;;7.00;99.90;;;;;;5114539;28;20047;-79
2021/12/29 03:25:25;;;;;;;0.75;0.75;;;7.00;99.90;;;;;;5114599;28;20147;-79
2021/12/29 03:27:58;;;;;;;0.50;0.50;;;7.00;99.90;;;;;;5114561;28;20066;-80
2021/12/29 03:30:26;;;;;;;0.50;0.50;;;7.10;99.90;;;;;;5114619;28;20043;-81
2021/12/29 03:33:02;;;;;;;0.50;0.50;;;7.10;99.90;;;;;;5114322;28;20036;-80
2021/12/29 03:35:39;;;;;;;0.65;0.65;;;7.10;99.90;;;;;;5114785;28;20407;-80
2021/12/29 03:38:07;;;;;;;0.60;0.60;;;7.10;99.90;;;;;;5114530;28;20127;-80
2021/12/29 03:40:36;;;;;;;0.65;0.60;;;7.10;99.90;;;;;;5114356;28;20039;-79
2021/12/29 03:43:04;;;;;;;0.50;0.50;;;7.10;99.90;;;;;;5114249;28;20079;-80
2021/12/29 03:45:30;;;;;;;2.50;1.25;;;7.20;99.90;;;;;;5114218;28;20040;-80
2021/12/29 03:47:55;;;;;;;0.90;0.90;;;7.20;99.90;;;;;;5114277;28;20070;-80
2021/12/29 03:50:21;;;;;;;1.45;1.27;;;7.20;99.90;;;;;;5114295;28;20046;-80
2021/12/29 03:52:47;;;;;;;0.90;0.90;;;7.20;99.90;;;;;;5114010;28;20128;-80
2021/12/29 03:55:13;;;;;;;0.60;0.60;;;7.30;99.90;;;;;;5114147;28;20051;-80
2021/12/29 03:57:39;;;;;;;0.70;0.70;;;7.30;99.90;;;;;;5114162;28;20047;-80
2021/12/29 04:00:08;;;;;;;1.15;1.05;;;7.30;99.90;;;;;;5114131;28;20044;-79
2021/12/29 04:02:34;;;;;;;0.82;0.82;;;7.20;99.90;;;;;;5114027;28;20475;-80
2021/12/29 04:05:01;;;;;;;1.00;0.98;;;7.30;99.90;;;;;;5114390;28;20101;-80
2021/12/29 04:07:27;;;;;;;1.17;1.13;;;7.30;99.90;;;;;;5113127;28;20049;-80
2021/12/29 04:09:53;;;;;;;0.75;0.75;;;7.20;99.90;;;;;;5114098;28;20433;-79
2021/12/29 04:12:18;;;;;;;0.77;0.77;;;7.30;99.90;;;;;;5114007;28;20163;-79
2021/12/29 04:14:44;;;;;;;0.70;0.70;;;7.30;99.90;;;;;;5113944;28;20048;-80
2021/12/29 04:17:12;;;;;;;0.60;0.60;;;7.30;99.90;;;;;;5114257;28;20479;-80
2021/12/29 04:20:54;;;;;;;1.02;1.02;;;7.30;99.90;;;;;;5116916;28;20036;-81
2021/12/29 04:22:31;;;;;;;0.50;0.50;;;7.30;99.90;;;;;;5117595;28;20127;-79
2021/12/29 04:24:57;;;;;;;1.13;1.10;;;7.30;99.90;;;;;;5118077;28;20043;-80
2021/12/29 04:27:24;;;;;;;0.70;0.70;;;7.30;99.90;;;;;;5118318;28;20507;-80
2021/12/29 04:29:50;;;;;;;0.50;0.50;;;7.40;99.90;;;;;;5117905;28;20035;-79
2021/12/29 04:32:16;;;;;;;0.85;0.75;;;7.30;99.90;;;;;;5117045;28;20044;-80
2021/12/29 04:34:42;;;;;;;1.40;1.30;;;7.40;99.90;;;;;;5118198;28;20168;-80
2021/12/29 04:37:07;;;;;;;3.97;1.17;;;7.30;99.90;;;;;;5117737;28;20503;-81
2021/12/29 04:39:33;;;;;;;0.70;0.70;;;7.40;99.90;;;;;;5117707;28;20054;-80
2021/12/29 04:41:58;;;;;;;1.27;0.98;;;7.40;99.90;;;;;;5118123;28;20044;-80
2021/12/29 04:44:24;;;;;;;1.92;1.75;;;7.40;99.90;;;;;;5118209;28;20043;-80
2021/12/29 04:46:50;;;;;;;0.50;0.50;;;7.30;99.90;;;;;;5126991;28;20093;-79
2021/12/29 04:49:22;;;;;;;0.50;0.50;;;7.30;99.90;;;;;;5133101;28;20055;-79
2021/12/29 04:51:55;;;;;;;0.50;0.50;;;7.40;99.90;;;;;;5131358;28;20043;-79
2021/12/29 04:54:21;;;;;;;1.15;1.05;;;7.40;99.90;;;;;;5131473;28;20046;-79
2021/12/29 04:56:47;;;;;;;0.50;0.50;;;7.40;99.90;;;;;;5132267;28;20051;-79
2021/12/29 04:59:15;;;;;;;0.85;0.85;;;7.40;99.90;;;;;;5131465;28;20067;-80
2021/12/29 05:01:42;;;;;;;1.30;1.20;;;7.40;99.90;;;;;;5125070;28;20047;-80
2021/12/29 05:04:07;;;;;;;0.80;0.80;;;7.40;99.90;;;;;;5117087;27;20048;-80
2021/12/29 05:09:17;;;;;;;0.50;0.50;;;7.40;99.90;;;;;;5117237;28;20047;-80
2021/12/29 05:11:42;;;;;;;0.93;0.80;;;7.40;99.90;;;;;;5117265;28;20468;-80
2021/12/29 05:14:08;;;;;;;0.60;0.60;;;7.40;99.90;;;;;;5117668;28;20130;-79
2021/12/29 05:16:33;;;;;;;1.73;1.20;;;7.40;99.90;;;;;;5117247;28;20040;-80
2021/12/29 05:18:59;;;;;;;0.85;0.85;;;7.40;99.90;;;;;;5116056;28;20044;-80
2021/12/29 05:21:27;;;;;;;0.60;0.60;;;7.50;99.90;;;;;;5117041;28;20043;-80
2021/12/29 05:23:54;;;;;;;0.63;0.63;;;7.40;99.90;;;;;;5115780;28;20031;-81
2021/12/29 05:26:20;;;;;;;0.77;0.77;;;7.40;99.90;;;;;;5115920;28;20092;-80
2021/12/29 05:28:46;;;;;;;0.50;0.50;;;7.40;99.90;;;;;;5116523;28;20130;-81
2021/12/29 05:31:11;;;;;;;1.42;0.95;;;7.40;99.90;;;;;;5117110;28;20047;-79
2021/12/29 05:33:37;;;;;;;0.50;0.50;;;7.40;99.90;;;;;;5119878;28;20046;-78
2021/12/29 05:36:03;;;;;;;0.75;0.70;;;7.40;99.90;;;;;;5119725;28;20126;-80
2021/12/29 05:38:29;;;;;;;0.75;0.75;;;7.40;99.90;;;;;;5116864;28;20146;-80
2021/12/29 05:40:55;;;;;;;0.40;0.40;;;7.40;99.90;;;;;;5116754;28;20126;-80
2021/12/29 05:43:20;;;;;;;0.50;0.50;;;7.40;99.90;;;;;;5116644;28;20360;-80
2021/12/29 05:45:49;;;;;;;0.50;0.50;;;7.40;99.90;;;;;;5116683;28;20097;-80
2021/12/29 05:48:15;;;;;;;0.82;0.77;;;7.40;99.90;;;;;;5116614;27;20079;-80
2021/12/29 05:50:40;;;;;;;0.50;0.50;;;7.40;99.90;;;;;;5116539;28;20050;-80
2021/12/29 05:53:06;;;;;;;0.60;0.60;;;7.40;99.90;;;;;;5116497;28;20488;-80
2021/12/29 05:55:32;;;;;;;0.85;0.82;;;7.40;99.90;;;;;;5116728;28;20114;-80
2021/12/29 05:57:58;;;;;;;0.60;0.60;;;7.40;99.90;;;;;;5116457;28;20083;-81
2021/12/29 06:00:25;;;;;;;0.90;0.63;;;7.40;99.90;;;;;;5116327;28;20047;-80
2021/12/29 06:02:52;;;;;;;1.15;0.80;;;7.40;99.90;;;;;;5116199;28;20127;-80
2021/12/29 06:05:18;;;;;;;1.58;1.48;;;7.40;99.90;;;;;;5116263;27;20130;-81
2021/12/29 06:07:44;;;;;;;0.88;0.88;;;7.40;99.90;;;;;;5116707;28;20506;-80
2021/12/29 06:10:10;;;;;;;1.15;1.05;;;7.40;99.90;;;;;;5116191;28;20494;-80
2021/12/29 06:12:37;;;;;;;0.82;0.82;;;7.40;99.90;;;;;;5116147;28;20039;-80
2021/12/29 06:15:04;;;;;;;24.95;1.70;;;7.40;99.90;;;;;;5116160;28;20047;-80
2021/12/29 06:17:30;;;;;;;0.80;0.73;;;7.40;99.90;;;;;;5115687;28;20479;-80
2021/12/29 06:19:56;;;;;;;0.95;0.93;;;7.40;99.90;;;;;;5115839;28;20149;-82
2021/12/29 06:22:23;;;;;;;0.50;0.50;;;7.40;99.90;;;;;;5114652;28;20083;-79
2021/12/29 06:24:52;;;;;;;2.78;1.65;;;7.40;99.90;;;;;;5115812;27;20039;-79
2021/12/29 06:27:19;;;;;;;0.93;0.93;;;7.60;99.90;;;;;;5115673;28;20047;-77
2021/12/29 06:29:45;;;;;;;0.70;0.70;;;7.40;99.90;;;;;;5115499;28;20066;-80
2021/12/29 06:32:11;;;;;;;0.75;0.75;;;7.40;99.90;;;;;;5114507;28;20464;-79
2021/12/29 06:34:37;;;;;;;0.60;0.60;;;7.40;99.90;;;;;;5115387;28;20047;-79
2021/12/29 06:37:08;;;;;;;2.13;1.25;;;7.40;99.90;;;;;;5115592;28;20429;-80
2021/12/29 06:39:37;;;;;;;0.68;0.68;;;7.40;99.90;;;;;;5115920;28;20047;-79
2021/12/29 06:42:03;;;;;;;1.08;1.05;;;7.40;99.90;;;;;;5114381;28;20039;-79
2021/12/29 06:44:29;;;;;;;0.65;0.60;;;7.40;99.90;;;;;;5115532;28;20050;-80
2021/12/29 06:46:54;;;;;;;1.05;0.95;;;7.40;99.90;;;;;;5115590;28;20047;-78
2021/12/29 06:49:21;;;;;;;0.65;0.65;;;7.40;99.90;;;;;;5115131;28;20044;-79
2021/12/29 06:51:49;;;;;;;1.77;1.30;;;7.40;99.90;;;;;;5114831;28;20480;-79
2021/12/29 06:54:14;;;;;;;0.60;0.60;;;7.40;99.90;;;;;;5115174;28;20048;-79
2021/12/29 06:56:40;;;;;;;4.30;1.85;;;7.40;99.90;;;;;;5115087;28;20046;-80
2021/12/29 06:59:06;;;;;;;0.88;0.88;;;7.40;99.90;;;;;;5113750;28;20122;-79
2021/12/29 07:01:32;;;;;;;0.85;0.85;;;7.40;99.90;;;;;;5115014;28;20467;-80
2021/12/29 07:03:58;;;;;;;1.27;0.95;;;7.40;99.90;;;;;;5113632;28;20387;-79
2021/12/29 07:06:23;;;;;;;1.13;1.02;;;7.40;99.90;;;;;;5114992;28;20179;-81
2021/12/29 07:08:49;;;;;;;0.63;0.50;;;7.40;99.90;;;;;;5114835;28;20050;-79
2021/12/29 07:11:15;;;;;;;0.50;0.50;;;7.40;99.90;;;;;;5114503;28;20047;-80
2021/12/29 07:13:42;;;;;;;3.10;0.93;;;7.40;99.90;;;;;;5114778;28;20046;-78
2021/12/29 07:16:07;;;;;;;;;;;7.40;99.90;;;;;;5114396;28;20506;-78
2021/12/29 07:18:33;;;;;;;0.60;0.60;;;7.40;99.90;;;;;;5114505;28;19924;-79
2021/12/29 07:20:58;;;;;;;0.50;0.50;;;7.50;99.90;;;;;;5114005;28;20089;-78
2021/12/29 07:23:24;;;;;;;0.80;0.80;;;7.40;99.90;;;;;;5114379;28;20039;-78
2021/12/29 07:25:49;;;;;;;1.25;1.15;;;7.50;99.90;;;;;;5114596;28;20183;-80
2021/12/29 07:28:15;;;;;;;0.80;0.60;;;7.50;99.90;;;;;;5114422;28;20058;-79
2021/12/29 07:30:41;;;;;;;0.63;0.63;;;7.40;99.90;;;;;;5114650;28;20047;-87
2021/12/29 07:33:07;;;;;;;0.63;0.63;;;7.40;99.90;;;;;;5114519;28;20043;-80
2021/12/29 07:35:33;;;;;;;0.80;0.80;;;7.50;99.90;;;;;;5114593;28;20051;-81
2021/12/29 07:37:58;;;;;;;0.50;0.50;;;7.50;99.90;;;;;;5114605;28;20035;-81
2021/12/29 07:40:24;;;;;;;0.50;0.50;;;7.50;99.90;;;;;;5114394;28;20495;-81
2021/12/29 07:42:50;;;;;;;1.42;0.70;;;7.50;99.90;;;;;;5114555;28;20047;-80
2021/12/29 07:45:15;;;;;;;2.10;1.33;;;7.50;99.90;;;;;;5114369;28;20398;-81
2021/12/29 07:47:47;;;;;;;0.70;0.70;;;7.50;99.90;;;;;;5114197;28;20043;-80
2021/12/29 07:50:21;;;;;;;1.00;0.90;;;7.50;99.90;;;;;;5114740;28;20488;-83
2021/12/29 07:52:48;;;;;;;1.85;1.25;;;7.50;99.90;;;;;;5112869;28;20094;-78
2021/12/29 07:55:15;;;;;;;0.50;0.50;;;7.50;99.90;;;;;;5114187;28;20084;-76
2021/12/29 07:57:41;;;;;;;1.48;0.82;;;7.50;99.90;;;;;;5114103;28;20510;-79
2021/12/29 08:00:08;;;;;;;0.63;0.63;;;7.50;99.90;;;;;;5114349;28;20047;-80
2021/12/29 08:02:35;;;;;;;0.98;0.80;;;7.50;99.90;;;;;;5114143;28;20044;-80
2021/12/29 08:05:00;;;;;;;;;;;7.50;99.90;;;;;;5115038;28;20044;-78
2021/12/29 08:07:25;;;;;;;0.80;0.80;;;7.50;99.90;;;;;;5113995;28;19972;-77
2021/12/29 08:09:52;;;;;;;0.55;0.55;;;7.50;99.90;;;;;;5114272;28;20047;-81
2021/12/29 08:12:18;;;;;;;0.60;0.60;;;7.50;99.90;;;;;;5114361;28;20036;-81
2021/12/29 08:14:45;;;;;;;0.50;0.50;;;7.60;99.90;;;;;;5113212;28;20043;-80
2021/12/29 08:17:11;;;;;;;0.80;0.80;;;7.50;99.90;;;;;;5114106;28;20093;-80
2021/12/29 08:19:37;;;;;;;0.73;0.73;;;7.50;99.90;;;;;;5114176;28;20546;-82
2021/12/29 08:22:03;;;;;;;0.50;0.50;;;7.60;99.90;;;;;;5113994;28;20036;-81
2021/12/29 08:24:28;;;;;;;0.68;0.68;;;7.60;99.90;;;;;;5114147;28;20093;-82
2021/12/29 08:26:54;;;;;;;0.50;0.50;;;7.50;99.90;;;;;;5113712;28;20048;-81
2021/12/29 08:29:20;;;;;;;0.60;0.60;;;7.60;99.90;;;;;;5114223;28;20043;-82
2021/12/29 08:31:45;;;;;;;0.73;0.73;;;7.60;99.90;;;;;;5114063;28;20395;-73
2021/12/29 08:34:11;;;;;;;0.60;0.60;;;7.60;99.90;;;;;;5114519;28;20136;-83
2021/12/29 08:36:37;;;;;;;0.50;0.50;;;7.60;99.90;;;;;;5112784;28;20109;-83
2021/12/29 08:39:03;;;;;;;0.50;0.50;;;8.00;99.90;;;;;;5114199;28;20039;-83
2021/12/29 08:41:28;;;;;;;0.50;0.50;;;7.60;99.90;;;;;;5112833;28;20097;-84
2021/12/29 08:43:54;;;;;;;0.43;0.43;;;7.60;99.90;;;;;;5113988;28;20471;-82
2021/12/29 08:46:20;;;;;;;0.50;0.50;;;7.60;99.90;;;;;;5147749;27;20051;-81
2021/12/29 08:48:46;;;;;;;0.50;0.50;;;7.60;99.90;;;;;;5113661;28;20097;-85
2021/12/29 08:51:12;;;;;;;0.50;0.50;;;7.60;99.90;;;;;;5137590;27;20101;-85
2021/12/29 08:53:38;;;;;;;0.50;0.50;;;7.70;99.90;;;;;;5107582;28;20051;-82
2021/12/29 08:56:05;;;;;;;0.60;0.60;;;7.60;99.90;;;;;;5113915;28;20073;-85
2021/12/29 08:58:30;;;;;;;0.50;0.50;;;7.60;99.90;;;;;;5113861;28;20122;-82
2021/12/29 09:00:58;;;;;;;0.50;0.50;;;7.70;99.90;;;;;;5113531;28;20109;-82
2021/12/29 09:03:23;;;;;;;0.50;0.50;;;7.70;99.90;;;;;;5113630;28;20134;-79
2021/12/29 09:05:50;;;;;;;0.50;0.50;;;7.70;99.90;;;;;;5114915;28;20134;-82
2021/12/29 09:08:15;;;;;;;0.93;0.93;;;7.70;99.90;;;;;;5117484;28;20372;-83
2021/12/29 09:10:42;;;;;;;0.98;0.98;;;7.70;99.90;;;;;;5117443;28;20092;-81
2021/12/29 09:13:08;;;;;;;0.50;0.50;;;7.80;99.90;;;;;;5117261;28;20521;-80
2021/12/29 09:15:34;;;;;;;0.50;0.50;;;7.70;99.90;;;;;;5117186;28;20050;-80
2021/12/29 09:17:59;;;;;;;1.40;1.30;;;7.70;99.90;;;;;;5117159;27;20036;-78
2021/12/29 09:20:31;;;;;;;0.75;0.70;;;7.80;99.90;;;;;;5117029;28;20491;-82
2021/12/29 09:23:03;;;;;;;0.50;0.50;;;7.80;99.90;;;;;;5117228;28;20122;-80
2021/12/29 09:25:29;;;;;;;1.58;1.20;;;7.80;99.90;;;;;;5116906;28;20075;-83
2021/12/29 09:27:55;;;;;;;0.50;0.50;;;7.80;99.90;;;;;;5116815;28;20066;-81
2021/12/29 09:30:25;;;;;;;0.50;0.50;;;7.80;99.90;;;;;;5115419;28;20039;-82
2021/12/29 09:32:52;;;;;;;0.88;0.85;;;7.90;99.90;;;;;;5117358;28;20120;-81
2021/12/29 09:35:20;;;;;;;1.02;1.02;;;7.90;99.90;;;;;;5116758;27;20419;-81
2021/12/29 09:37:46;;;;;;;0.50;0.50;;;7.90;99.90;;;;;;5116456;27;20145;-81
2021/12/29 09:40:13;;;;;;;0.95;0.50;;;7.90;99.90;;;;;;5115790;28;20043;-81
2021/12/29 09:42:39;;;;;;;0.60;0.50;;;7.90;99.90;;;;;;5116311;28;20476;-81
2021/12/29 09:45:08;;;;;;;1.35;1.25;;;7.90;99.90;;;;;;5116552;28;20054;-80
2021/12/29 09:47:34;;;;;;;0.65;0.50;;;8.00;99.90;;;;;;5116342;28;20075;-81
2021/12/29 09:50:03;;;;;;;1.35;1.25;;;8.00;99.90;;;;;;5116658;28;20097;-81
2021/12/29 09:52:33;;;;;;;0.60;0.60;;;8.00;99.90;;;;;;5115130;28;20472;-80
2021/12/29 09:55:04;;;;;;;1.67;1.58;;;8.00;99.90;;;;;;5119233;28;20054;-80
2021/12/29 09:57:29;;;;;;;0.65;0.65;;;8.10;99.90;;;;;;5118769;28;20040;-81
2021/12/29 09:59:55;;;;;;;0.77;0.77;;;8.00;99.90;;;;;;5118525;27;20100;-80
2021/12/29 10:02:21;;;;;;;0.63;0.63;;;8.10;99.90;;;;;;5100174;28;20054;-80
2021/12/29 10:04:46;;;;;;;0.50;0.50;;;8.10;99.90;;;;;;5115668;28;20120;-80
2021/12/29 10:07:20;;;;;;;0.50;0.50;;;8.10;99.90;;;;;;5116656;28;20395;-81
2021/12/29 10:09:46;;;;;;;0.57;0.57;;;8.10;99.90;;;;;;5115543;28;20047;-81
2021/12/29 10:12:20;;;;;;;0.52;0.52;;;8.10;99.90;;;;;;5115504;27;20050;-81
2021/12/29 10:14:54;;;;;;;0.63;0.63;;;8.20;99.90;;;;;;5115892;28;20415;-81
2021/12/29 10:17:25;;;;;;;0.50;0.50;;;8.20;99.90;;;;;;5115463;28;20044;-81
2021/12/29 10:20:10;;;;;;;0.40;0.40;;;8.20;99.90;;;;;;5115791;28;20123;-81
2021/12/29 10:22:36;;;;;;;0.57;0.57;;;8.20;99.90;;;;;;5115403;28;20490;-81
2021/12/29 10:25:12;;;;;;;1.55;0.80;;;8.30;99.90;;;;;;5115424;28;20040;-81
2021/12/29 10:27:39;;;;;;;0.43;0.43;;;8.30;99.90;;;;;;5115180;28;20411;-81
2021/12/29 10:30:20;;;;;;;0.75;0.75;;;8.30;99.90;;;;;;5114478;28;20043;-81
2021/12/29 10:32:46;;;;;;;0.50;0.50;;;8.30;99.90;;;;;;5115412;28;20134;-81
2021/12/29 10:35:31;;;;;;;0.82;0.82;;;8.30;99.90;;;;;;5115076;28;20127;-81
2021/12/29 10:38:13;;;;;;;0.40;0.40;;;8.30;99.90;;;;;;5113323;28;20043;-81
2021/12/29 10:40:39;;;;;;;0.70;0.70;;;8.30;99.90;;;;;;5113960;28;20400;-81
2021/12/29 10:43:05;;;;;;;0.50;0.50;;;8.30;99.90;;;;;;5114986;28;20167;-81
2021/12/29 10:45:37;;;;;;;0.40;0.40;;;8.30;99.90;;;;;;5115090;28;20047;-81
2021/12/29 10:48:17;;;;;;;0.50;0.50;;;8.30;99.90;;;;;;5115193;28;20040;-81
2021/12/29 10:50:58;;;;;;;0.77;0.77;;;8.30;99.90;;;;;;5115103;27;20043;-81
2021/12/29 10:53:24;;;;;;;1.40;1.30;;;8.30;99.90;;;;;;5114998;28;20130;-81
2021/12/29 10:55:50;;;;;;;0.50;0.50;;;8.30;99.90;;;;;;5115315;28;20122;-81
2021/12/29 10:58:20;;;;;;;0.50;0.50;;;8.30;99.90;;;;;;5115020;28;20130;-81
2021/12/29 11:01:08;;;;;;;0.60;0.60;;;8.30;99.90;;;;;;5113549;28;20690;-81
2021/12/29 11:03:41;;;;;;;0.60;0.60;;;8.30;99.90;;;;;;5115077;28;20088;-81
2021/12/29 11:06:12;;;;;;;0.50;0.50;;;8.40;99.90;;;;;;5114932;28;20043;-81
2021/12/29 11:08:56;;;;;;;0.40;0.40;;;8.40;99.90;;;;;;5114458;28;20040;-81
2021/12/29 11:11:36;;;;;;;0.85;0.85;;;8.40;99.90;;;;;;5114877;28;20395;-81
2021/12/29 11:14:07;;;;;;;0.40;0.40;;;8.50;99.90;;;;;;5114477;27;20082;-81
2021/12/29 11:16:33;;;;;;;0.50;0.50;;;8.50;99.90;;;;;;5114308;28;20094;-79
2021/12/29 11:18:58;;;;;;;1.05;1.02;;;8.50;99.90;;;;;;5114414;28;20479;-81
2021/12/29 11:21:26;;;;;;;1.45;1.40;;;8.70;99.90;;;;;;5114340;28;20479;-80
2021/12/29 11:23:53;;;;;;;0.60;0.60;;;8.60;99.90;;;;;;5114497;28;20044;-81
2021/12/29 11:26:28;;;;;;;0.40;0.40;;;8.60;99.90;;;;;;5114503;28;20104;-81
2021/12/29 11:29:03;;;;;;;0.90;0.90;;;8.60;99.90;;;;;;5113748;28;20063;-82
2021/12/29 11:31:34;;;;;;;0.40;0.40;;;8.60;99.90;;;;;;5114331;28;20047;-80
2021/12/29 11:34:12;;;;;;;1.58;1.48;;;8.60;99.90;;;;;;5114354;28;20043;-82
2021/12/29 11:36:37;;;;;;;0.75;0.75;;;8.60;99.90;;;;;;5114161;28;20087;-79
2021/12/29 11:39:03;;;;;;;1.45;1.05;;;8.60;99.90;;;;;;5114168;28;20079;-82
2021/12/29 11:41:29;;;;;;;0.95;0.65;;;8.60;99.90;;;;;;5112910;28;20036;-79
2021/12/29 11:43:55;;;;;;;2.72;1.20;;;8.70;99.90;;;;;;5113791;28;20051;-81
2021/12/29 11:46:24;;;;;;;0.50;0.50;;;8.70;99.90;;;;;;5112973;28;20441;-80
2021/12/29 11:48:51;;;;;;;0.93;0.93;;;8.70;99.90;;;;;;5114159;28;20047;-79
2021/12/29 11:51:30;;;;;;;0.50;0.50;;;8.80;99.90;;;;;;5113856;28;20130;-81
2021/12/29 11:54:06;;;;;;;2.67;1.75;;;8.70;99.90;;;;;;5114325;28;20055;-80
2021/12/29 11:56:40;;;;;;;0.47;0.47;;;8.80;99.90;;;;;;5113955;28;20071;-82
2021/12/29 11:59:06;;;;;;;0.50;0.50;;;8.80;99.90;;;;;;5114025;28;20082;-81
2021/12/29 12:01:32;;;;;;;0.40;0.40;;;8.80;99.90;;;;;;5113410;28;20495;-81
2021/12/29 12:04:00;;;;;;;1.25;0.70;;;8.70;99.90;;;;;;5113791;28;20036;-82
2021/12/29 12:06:31;;;;;;;0.70;0.70;;;8.70;99.90;;;;;;5113157;28;20066;-82
2021/12/29 12:09:05;;;;;;;0.95;0.88;;;8.70;99.90;;;;;;5110638;28;20384;-82
2021/12/29 12:11:31;;;;;;;0.50;0.50;;;8.70;99.90;;;;;;5113547;28;20036;-82
2021/12/29 12:13:57;;;;;;;0.50;0.50;;;8.80;99.90;;;;;;5113659;28;20130;-81
2021/12/29 12:16:25;;;;;;;0.50;0.50;;;8.70;99.90;;;;;;5113558;28;20047;-78
2021/12/29 12:18:54;;;;;;;0.70;0.70;;;8.70;99.90;;;;;;5113414;28;20503;-80
2021/12/29 12:21:32;;;;;;;0.50;0.50;;;8.70;99.90;;;;;;5113987;28;20066;-80
2021/12/29 12:24:20;;;;;;;0.50;0.50;;;8.70;99.90;;;;;;5113824;28;20079;-75
2021/12/29 12:26:57;;;;;;;0.60;0.60;;;8.70;99.90;;;;;;5113982;28;20050;-79
2021/12/29 12:29:25;;;;;;;0.40;0.40;;;8.70;99.90;;;;;;5114211;28;20052;-80
2021/12/29 12:32:15;;;;;;;1.05;0.95;;;8.70;99.90;;;;;;5113941;28;20039;-79
2021/12/29 12:34:57;;;;;;;0.82;0.80;;;8.70;99.90;;;;;;5113986;28;20043;-77
2021/12/29 12:37:34;;;;;;;0.50;0.50;;;8.70;99.90;;;;;;5113838;28;20048;-79
2021/12/29 12:40:08;;;;;;;0.98;0.98;;;8.70;99.90;;;;;;5117064;28;20147;-80
2021/12/29 12:42:34;;;;;;;1.35;1.25;;;8.70;99.90;;;;;;5117279;27;20086;-81
2021/12/29 12:45:01;;;;;;;0.50;0.50;;;8.70;99.90;;;;;;5117590;28;20051;-79
2021/12/29 12:47:33;;;;;;;0.63;0.63;;;8.70;99.90;;;;;;5117625;27;20039;-79
2021/12/29 12:50:00;;;;;;;0.60;0.60;;;8.70;99.90;;;;;;5117405;28;20050;-80
2021/12/29 12:52:27;;;;;;;0.60;0.60;;;8.70;99.90;;;;;;5117387;28;20480;-80
2021/12/29 12:54:57;;;;;;;;;;;8.60;99.90;;;;;;5117896;28;20092;-80
2021/12/29 12:57:28;;;;;;;1.17;1.00;;;8.60;99.90;;;;;;5117496;28;19923;-79
2021/12/29 13:00:03;;;;;;;0.60;0.60;;;8.60;99.90;;;;;;5117396;28;20093;-79
2021/12/29 13:02:42;;;;;;;0.77;0.77;;;8.60;99.90;;;;;;5117145;28;20046;-79
2021/12/29 13:05:16;;;;;;;0.60;0.60;;;8.60;99.90;;;;;;5117358;28;20043;-79
2021/12/29 13:07:44;;;;;;;0.75;0.75;;;8.60;99.90;;;;;;5116730;28;20047;-79